Time;durP1;ratioP1;P1;durP2;ratioP2;P2;SDS_P1;SDS_P2;PMS_P1;PMS_P2;Temp;Humidity;BMP_temperature;BMP_pressure;BME280_temperature;BME280_humidity;BME280_pressure;Samples;Min_cycle;Max_cycle;Signal;HPM_P1;HPM_P2
2023/06/23 00:01:31;;;;;;;;;;;24.10;54.60;;;;;;5094676;28;19927;-59
2023/06/23 00:03:59;;;;;;;;;;;24.10;54.60;;;;;;5096175;28;19924;-59
2023/06/23 00:06:25;;;;;;;;;;;24.10;54.60;;;;;;5095212;28;19924;-58
2023/06/23 00:08:52;;;;;;;;;;;24.10;54.70;;;;;;5099792;28;19951;-58
2023/06/23 00:11:19;;;;;;;;;;;24.10;54.80;;;;;;5094527;28;20388;-59
2023/06/23 00:13:46;;;;;;;;;;;24.10;54.80;;;;;;5097516;28;19927;-58
2023/06/23 00:16:14;;;;;;;;;;;24.10;54.90;;;;;;5095236;28;19951;-58
2023/06/23 00:18:41;;;;;;;;;;;24.00;54.80;;;;;;5114684;27;20312;-58
2023/06/23 00:21:08;;;;;;;;;;;24.10;55.00;;;;;;5095234;28;20221;-58
2023/06/23 00:23:35;;;;;;;;;;;24.10;55.00;;;;;;5110026;27;20289;-58
2023/06/23 00:26:03;;;;;;;;;;;24.00;55.00;;;;;;5095060;28;19963;-60
2023/06/23 00:28:30;;;;;;;;;;;24.00;54.90;;;;;;5096140;28;19919;-59
2023/06/23 00:30:57;;;;;;;;;;;24.10;54.90;;;;;;5084428;28;19927;-58
2023/06/23 00:33:25;;;;;;;;;;;24.10;55.10;;;;;;5096110;28;19920;-58
2023/06/23 00:35:52;;;;;;;;;;;24.10;55.10;;;;;;5095904;28;19920;-58
2023/06/23 00:38:19;;;;;;;;;;;24.10;55.10;;;;;;5094263;28;19924;-59
2023/06/23 00:40:46;;;;;;;;;;;24.00;55.00;;;;;;5097917;28;19920;-59
2023/06/23 00:43:13;;;;;;;;;;;24.10;55.10;;;;;;5102827;28;19920;-57
2023/06/23 00:45:40;;;;;;;;;;;24.10;55.10;;;;;;5099603;28;19920;-58
2023/06/23 00:48:08;;;;;;;;;;;24.10;55.10;;;;;;5090996;28;19951;-58
2023/06/23 00:50:37;;;;;;;;;;;24.00;55.00;;;;;;5095188;28;20016;-58
2023/06/23 00:53:04;;;;;;;;;;;24.10;55.00;;;;;;5095238;28;19924;-57
2023/06/23 00:55:30;;;;;;;;;;;24.10;55.00;;;;;;5093953;28;19920;-57
2023/06/23 00:57:57;;;;;;;;;;;24.10;55.00;;;;;;5098557;28;19951;-57
2023/06/23 01:00:25;;;;;;;;;;;24.10;54.90;;;;;;5098943;28;19920;-58
2023/06/23 01:02:52;;;;;;;;;;;24.10;54.80;;;;;;5096528;28;19927;-58
2023/06/23 01:05:21;;;;;;;;;;;24.10;54.80;;;;;;5096866;28;19997;-58
2023/06/23 01:07:50;;;;;;;;;;;24.10;54.90;;;;;;5094287;28;19928;-58
2023/06/23 01:10:18;;;;;;;;;;;24.10;55.00;;;;;;5115477;27;19919;-58
2023/06/23 01:12:46;;;;;;;;;;;24.10;55.00;;;;;;5096591;28;19985;-58
2023/06/23 01:15:14;;;;;;;;;;;24.10;55.10;;;;;;5111239;27;20342;-58
2023/06/23 01:17:42;;;;;;;;;;;24.10;55.10;;;;;;5098531;28;19923;-58
2023/06/23 01:20:20;;;;;;;;;;;24.10;55.20;;;;;;5098964;28;20281;-58
2023/06/23 01:22:47;;;;;;;;;;;24.10;55.20;;;;;;5098470;28;19920;-58
2023/06/23 01:25:18;;;;;;;;;;;24.10;55.20;;;;;;5092967;28;19920;-58
2023/06/23 01:28:03;;;;;;;;;;;24.10;55.30;;;;;;5096725;28;19928;-58
2023/06/23 01:30:32;;;;;;;;;;;24.10;55.40;;;;;;5086684;28;19981;-57
2023/06/23 01:33:06;;;;;;;;;;;24.10;55.40;;;;;;5097265;28;19931;-57
2023/06/23 01:35:33;;;;;;;;;;;24.10;55.40;;;;;;5097276;28;19927;-58
2023/06/23 01:38:09;;;;;;;;;;;24.10;55.40;;;;;;5099198;28;20358;-57
2023/06/23 01:40:36;;;;;;;;;;;24.10;55.40;;;;;;5097519;28;19924;-57
2023/06/23 01:43:04;;;;;;;;;;;24.10;55.40;;;;;;5097303;28;19924;-57
2023/06/23 01:45:32;;;;;;;;;;;24.10;55.40;;;;;;5094201;28;19921;-57
2023/06/23 01:48:00;;;;;;;;;;;24.10;55.40;;;;;;5095605;28;19976;-57
2023/06/23 01:50:26;;;;;;;;;;;24.10;55.40;;;;;;5097500;28;19946;-58
2023/06/23 01:52:53;;;;;;;;;;;24.10;55.40;;;;;;5104611;28;20261;-57
2023/06/23 01:55:20;;;;;;;;;;;24.10;55.30;;;;;;5093776;28;19921;-57
2023/06/23 01:57:46;;;;;;;;;;;24.10;55.30;;;;;;5097362;28;19924;-57
2023/06/23 02:00:15;;;;;;;;;;;24.10;55.40;;;;;;5095327;28;19928;-59
2023/06/23 02:02:44;;;;;;;;;;;24.10;55.30;;;;;;5098107;28;19926;-57
2023/06/23 02:05:11;;;;;;;;;;;24.10;55.30;;;;;;5093854;28;19977;-57
2023/06/23 02:07:38;;;;;;;;;;;24.10;55.30;;;;;;5095669;28;20332;-57
2023/06/23 02:10:05;;;;;;;;;;;24.10;55.20;;;;;;5093726;28;20416;-57
2023/06/23 02:12:32;;;;;;;;;;;24.10;55.20;;;;;;5096668;28;19920;-57
2023/06/23 02:14:59;;;;;;;;;;;24.10;55.20;;;;;;5098348;28;19931;-57
2023/06/23 02:17:26;;;;;;;;;;;24.10;55.20;;;;;;5102359;28;19920;-58
2023/06/23 02:19:54;;;;;;;;;;;24.10;55.20;;;;;;5096515;28;19928;-57
2023/06/23 02:22:23;;;;;;;;;;;24.10;55.20;;;;;;5100864;28;19927;-57
2023/06/23 02:24:50;;;;;;;;;;;24.10;55.20;;;;;;5100840;28;19950;-57
2023/06/23 02:27:16;;;;;;;;;;;24.10;55.20;;;;;;5092613;28;20002;-57
2023/06/23 02:29:43;;;;;;;;;;;24.20;55.20;;;;;;5099077;28;19920;-57
2023/06/23 02:32:17;;;;;;;;;;;24.10;55.20;;;;;;5097775;28;20312;-57
2023/06/23 02:34:46;;;;;;;;;;;24.20;55.20;;;;;;5101740;28;19927;-58
2023/06/23 02:37:16;;;;;;;;;;;24.10;55.10;;;;;;5096265;28;19991;-57
2023/06/23 02:39:44;;;;;;;;;;;24.20;55.20;;;;;;5099066;28;20359;-57
2023/06/23 02:42:12;;;;;;;;;;;24.10;55.10;;;;;;5091858;28;19920;-57
2023/06/23 02:44:42;;;;;;;;;;;24.10;55.10;;;;;;5097843;28;19924;-57
2023/06/23 02:47:09;;;;;;;;;;;24.20;55.20;;;;;;5098853;28;19982;-57
2023/06/23 02:49:36;;;;;;;;;;;24.10;55.20;;;;;;5100571;28;19924;-57
2023/06/23 02:52:03;;;;;;;;;;;24.20;55.20;;;;;;5099786;28;19927;-57
2023/06/23 02:54:33;;;;;;;;;;;24.20;55.20;;;;;;5097401;28;19920;-57
2023/06/23 02:56:59;;;;;;;;;;;24.20;55.20;;;;;;5099029;28;19925;-57
2023/06/23 02:59:26;;;;;;;;;;;24.20;55.30;;;;;;5103244;28;19932;-57
2023/06/23 03:01:53;;;;;;;;;;;24.20;55.30;;;;;;5106930;28;19994;-58
2023/06/23 03:04:22;;;;;;;;;;;24.20;55.30;;;;;;5095304;28;20427;-58
2023/06/23 03:06:49;;;;;;;;;;;24.10;55.30;;;;;;5121324;27;19942;-58
2023/06/23 03:09:15;;;;;;;;;;;24.20;55.40;;;;;;5097477;28;19920;-58
2023/06/23 03:11:44;;;;;;;;;;;24.20;55.40;;;;;;5098616;28;20413;-57
2023/06/23 03:14:10;;;;;;;;;;;24.10;55.20;;;;;;5097022;28;19973;-56
2023/06/23 03:16:39;;;;;;;;;;;24.20;55.30;;;;;;5059878;28;19966;-57
2023/06/23 03:19:08;;;;;;;;;;;24.20;55.30;;;;;;5057226;28;19924;-57
2023/06/23 03:21:35;;;;;;;;;;;24.20;55.30;;;;;;5069262;28;19942;-57
2023/06/23 03:24:02;;;;;;;;;;;24.20;55.30;;;;;;5060189;28;19920;-58
2023/06/23 03:26:29;;;;;;;;;;;24.10;55.30;;;;;;5079030;28;19973;-58
2023/06/23 03:28:57;;;;;;;;;;;24.10;55.30;;;;;;5060075;28;19959;-59
2023/06/23 03:31:24;;;;;;;;;;;24.10;55.30;;;;;;5059073;28;19920;-57
2023/06/23 03:33:51;;;;;;;;;;;24.10;55.30;;;;;;5072890;28;19920;-58
2023/06/23 03:36:18;;;;;;;;;;;24.10;55.30;;;;;;5061427;28;19924;-57
2023/06/23 03:38:45;;;;;;;;;;;24.10;55.20;;;;;;5059869;28;20317;-58
2023/06/23 03:41:12;;;;;;;;;;;24.10;55.20;;;;;;5077511;28;19920;-57
2023/06/23 03:43:39;;;;;;;;;;;24.10;55.20;;;;;;5058331;28;19927;-57
2023/06/23 03:46:08;;;;;;;;;;;24.10;55.10;;;;;;5065435;28;19950;-58
2023/06/23 03:48:36;;;;;;;;;;;24.00;55.00;;;;;;5053987;28;19920;-57
2023/06/23 03:51:03;;;;;;;;;;;24.00;54.90;;;;;;5061987;28;20358;-57
2023/06/23 03:53:30;;;;;;;;;;;24.00;54.90;;;;;;5081098;28;19928;-57
2023/06/23 03:55:56;;;;;;;;;;;24.00;54.80;;;;;;5080249;28;20332;-57
2023/06/23 03:58:24;;;;;;;;;;;24.00;55.40;;;;;;5079874;28;19943;-57
2023/06/23 04:00:50;;;;;;;;;;;24.00;54.80;;;;;;5079163;28;19920;-57
2023/06/23 04:03:18;;;;;;;;;;;24.00;54.70;;;;;;5063724;28;20370;-57
2023/06/23 04:05:45;;;;;;;;;;;23.90;54.60;;;;;;5067823;28;19920;-57
2023/06/23 04:08:12;;;;;;;;;;;24.00;54.70;;;;;;5061976;28;20424;-57
2023/06/23 04:10:39;;;;;;;;;;;23.90;54.50;;;;;;5061963;28;19928;-57
2023/06/23 04:13:05;;;;;;;;;;;24.00;54.60;;;;;;5053594;28;19921;-57
2023/06/23 04:15:32;;;;;;;;;;;23.90;54.50;;;;;;5075916;28;20561;-57
2023/06/23 04:17:59;;;;;;;;;;;24.00;54.60;;;;;;5098222;28;19927;-57
2023/06/23 04:20:27;;;;;;;;;;;23.90;54.50;;;;;;5092504;28;19923;-57
2023/06/23 04:22:54;;;;;;;;;;;23.90;54.50;;;;;;5097001;28;19920;-57
2023/06/23 04:25:20;;;;;;;;;;;23.90;54.50;;;;;;5100233;28;19930;-57
2023/06/23 04:27:48;;;;;;;;;;;24.00;54.50;;;;;;5110040;28;20501;-57
2023/06/23 04:30:15;;;;;;;;;;;24.00;54.50;;;;;;5093422;28;19920;-57
2023/06/23 04:32:42;;;;;;;;;;;24.00;54.50;;;;;;5091374;28;19924;-57
2023/06/23 04:35:08;;;;;;;;;;;24.00;54.50;;;;;;5090215;28;19924;-57
2023/06/23 04:37:39;;;;;;;;;;;24.00;54.40;;;;;;5092759;28;19930;-58
2023/06/23 04:40:08;;;;;;;;;;;24.00;54.40;;;;;;5106174;28;19962;-57
2023/06/23 04:42:42;;;;;;;;;;;24.00;54.40;;;;;;5100401;28;19923;-57
2023/06/23 04:45:09;;;;;;;;;;;24.00;54.40;;;;;;5101348;28;20308;-57
2023/06/23 04:47:36;;;;;;;;;;;24.00;54.40;;;;;;5093769;28;19920;-57
2023/06/23 04:50:04;;;;;;;;;;;24.00;54.30;;;;;;5094958;28;20358;-57
2023/06/23 04:52:31;;;;;;;;;;;24.00;54.30;;;;;;5099964;28;19966;-57
2023/06/23 04:54:59;;;;;;;;;;;24.00;54.30;;;;;;5099785;28;19973;-57
2023/06/23 04:57:28;;;;;;;;;;;24.00;54.30;;;;;;5090201;28;20432;-57
2023/06/23 04:59:56;;;;;;;;;;;24.00;54.30;;;;;;5101704;28;19927;-56
2023/06/23 05:02:25;;;;;;;;;;;24.00;54.20;;;;;;5098153;28;19926;-58
2023/06/23 05:04:52;;;;;;;;;;;24.00;54.20;;;;;;5097928;28;20003;-57
2023/06/23 05:07:19;;;;;;;;;;;24.00;54.20;;;;;;5107755;28;19920;-57
2023/06/23 05:09:47;;;;;;;;;;;24.00;54.20;;;;;;5106051;28;19920;-58
2023/06/23 05:12:16;;;;;;;;;;;24.00;54.20;;;;;;5089572;28;19977;-56
2023/06/23 05:14:43;;;;;;;;;;;24.00;54.10;;;;;;5093365;28;19927;-56
2023/06/23 05:17:10;;;;;;;;;;;24.00;54.10;;;;;;5057315;28;19920;-56
2023/06/23 05:19:37;;;;;;;;;;;24.00;54.20;;;;;;5071207;28;19928;-55
2023/06/23 05:22:08;;;;;;;;;;;24.00;54.20;;;;;;5059805;28;20287;-57
2023/06/23 05:24:35;;;;;;;;;;;24.00;54.20;;;;;;5060807;28;19921;-57
2023/06/23 05:27:02;;;;;;;;;;;24.00;54.20;;;;;;5083632;28;19924;-57
2023/06/23 05:29:30;;;;;;;;;;;24.00;54.20;;;;;;5060867;28;19943;-57
2023/06/23 05:31:57;;;;;;;;;;;24.00;54.20;;;;;;5059914;28;19927;-57
2023/06/23 05:34:24;;;;;;;;;;;24.00;54.20;;;;;;5070915;28;19924;-57
2023/06/23 05:36:51;;;;;;;;;;;24.00;54.20;;;;;;5054602;28;19924;-57
2023/06/23 05:39:18;;;;;;;;;;;24.00;54.10;;;;;;5078165;28;19931;-56
2023/06/23 05:41:44;;;;;;;;;;;24.00;54.10;;;;;;5076391;28;19920;-56
2023/06/23 05:44:11;;;;;;;;;;;24.00;54.10;;;;;;5060134;28;19948;-57
2023/06/23 05:46:40;;;;;;;;;;;24.00;54.10;;;;;;5057994;28;20324;-58
2023/06/23 05:49:07;;;;;;;;;;;24.00;54.60;;;;;;5059041;28;19943;-57
2023/06/23 05:51:33;;;;;;;;;;;24.00;54.10;;;;;;5053568;28;19924;-57
2023/06/23 05:54:00;;;;;;;;;;;24.00;54.00;;;;;;5058098;28;19981;-57
2023/06/23 05:56:30;;;;;;;;;;;24.00;54.00;;;;;;5058809;28;19964;-57
2023/06/23 05:58:57;;;;;;;;;;;24.00;54.00;;;;;;5069312;28;19920;-59
2023/06/23 06:01:24;;;;;;;;;;;24.00;54.00;;;;;;5084349;28;19927;-58
2023/06/23 06:03:55;;;;;;;;;;;24.00;54.00;;;;;;5062013;28;19927;-57
2023/06/23 06:06:22;;;;;;;;;;;24.00;54.00;;;;;;5059282;28;19928;-57
2023/06/23 06:08:49;;;;;;;;;;;24.00;54.00;;;;;;5088781;28;19920;-59
2023/06/23 06:11:16;;;;;;;;;;;24.00;54.00;;;;;;5070334;28;19924;-58
2023/06/23 06:13:43;;;;;;;;;;;24.00;54.10;;;;;;5062152;28;20015;-58
2023/06/23 06:16:10;;;;;;;;;;;24.00;54.10;;;;;;5077377;28;19980;-58
2023/06/23 06:18:37;;;;;;;;;;;24.00;54.10;;;;;;5065185;28;19920;-58
2023/06/23 06:21:05;;;;;;;;;;;24.00;54.10;;;;;;5058497;28;19943;-59
2023/06/23 06:23:32;;;;;;;;;;;24.00;54.10;;;;;;5074433;28;19920;-58
2023/06/23 06:25:58;;;;;;;;;;;24.00;54.10;;;;;;5070762;28;19920;-57
2023/06/23 06:28:26;;;;;;;;;;;24.00;54.20;;;;;;5061438;28;19940;-57
2023/06/23 06:30:53;;;;;;;;;;;24.00;54.20;;;;;;5060289;28;19932;-56
2023/06/23 06:33:19;;;;;;;;;;;24.00;54.30;;;;;;5077382;28;19919;-57
2023/06/23 06:35:46;;;;;;;;;;;24.00;54.30;;;;;;5058646;28;19966;-58
2023/06/23 06:38:14;;;;;;;;;;;24.00;54.30;;;;;;5079182;28;19951;-58
2023/06/23 06:40:41;;;;;;;;;;;24.00;54.20;;;;;;5065243;28;19936;-58
2023/06/23 06:43:08;;;;;;;;;;;24.00;54.20;;;;;;5061165;28;20006;-58
2023/06/23 06:45:34;;;;;;;;;;;24.00;54.20;;;;;;5057419;28;20358;-57
2023/06/23 06:48:01;;;;;;;;;;;24.00;54.20;;;;;;5064968;28;19931;-58
2023/06/23 06:50:28;;;;;;;;;;;24.00;54.30;;;;;;5054714;28;20382;-56
2023/06/23 06:52:55;;;;;;;;;;;24.10;54.40;;;;;;5058236;28;19928;-58
2023/06/23 06:55:23;;;;;;;;;;;24.10;54.40;;;;;;5064132;28;19920;-58
2023/06/23 06:57:51;;;;;;;;;;;24.10;54.40;;;;;;5058786;28;19920;-57
2023/06/23 07:00:18;;;;;;;;;;;24.10;54.50;;;;;;5053995;28;19932;-58
2023/06/23 07:02:45;;;;;;;;;;;24.10;54.40;;;;;;5058010;28;19921;-58
2023/06/23 07:05:12;;;;;;;;;;;24.10;54.40;;;;;;5068327;28;19931;-58
2023/06/23 07:07:39;;;;;;;;;;;24.10;54.40;;;;;;5057492;28;19920;-58
2023/06/23 07:10:09;;;;;;;;;;;24.10;54.40;;;;;;5066717;28;19920;-58
2023/06/23 07:12:37;;;;;;;;;;;24.10;54.50;;;;;;5057949;28;19924;-57
2023/06/23 07:15:07;;;;;;;;;;;24.10;54.40;;;;;;5076557;28;19939;-57
2023/06/23 07:17:35;;;;;;;;;;;24.10;54.50;;;;;;5058760;28;19955;-58
2023/06/23 07:20:01;;;;;;;;;;;24.10;54.50;;;;;;5061187;28;20278;-57
2023/06/23 07:22:28;;;;;;;;;;;24.10;54.50;;;;;;5058891;28;19954;-58
2023/06/23 07:24:56;;;;;;;;;;;24.10;54.60;;;;;;5059429;28;19935;-58
2023/06/23 07:27:22;;;;;;;;;;;24.20;54.80;;;;;;5057412;28;20514;-58
2023/06/23 07:29:51;;;;;;;;;;;24.20;54.90;;;;;;5057432;28;19927;-59
2023/06/23 07:32:18;;;;;;;;;;;24.20;54.90;;;;;;5064618;28;19920;-59
2023/06/23 07:34:45;;;;;;;;;;;24.20;54.90;;;;;;5077026;28;19932;-58
2023/06/23 07:37:11;;;;;;;;;;;24.20;54.90;;;;;;5057317;28;19978;-56
2023/06/23 07:39:38;;;;;;;;;;;24.20;54.90;;;;;;5059674;28;19928;-58
2023/06/23 07:42:06;;;;;;;;;;;24.20;55.00;;;;;;5079184;28;19951;-59
2023/06/23 07:44:33;;;;;;;;;;;24.20;54.90;;;;;;5056843;28;20224;-59
2023/06/23 07:47:01;;;;;;;;;;;24.20;54.90;;;;;;5059744;28;19959;-58
2023/06/23 07:49:28;;;;;;;;;;;24.20;54.90;;;;;;5077710;28;19920;-57
2023/06/23 07:51:59;;;;;;;;;;;24.20;55.00;;;;;;5059185;28;20319;-58
2023/06/23 07:54:26;;;;;;;;;;;24.20;55.10;;;;;;5077069;28;19920;-58
2023/06/23 07:56:53;;;;;;;;;;;24.20;55.10;;;;;;5059949;28;19921;-57
2023/06/23 07:59:20;;;;;;;;;;;24.20;55.20;;;;;;5060868;28;20426;-59
2023/06/23 08:01:46;;;;;;;;;;;24.20;55.20;;;;;;5080936;28;19977;-57
2023/06/23 08:04:15;;;;;;;;;;;24.20;55.30;;;;;;5078394;28;19928;-57
2023/06/23 08:06:41;;;;;;;;;;;24.20;55.30;;;;;;5065961;28;19924;-58
2023/06/23 08:09:08;;;;;;;;;;;24.20;55.30;;;;;;5074446;28;19921;-57
2023/06/23 08:11:35;;;;;;;;;;;24.20;55.50;;;;;;5059175;28;19924;-55
2023/06/23 08:14:02;;;;;;;;;;;24.20;55.60;;;;;;5058020;28;19920;-57
2023/06/23 08:16:29;;;;;;;;;;;24.30;55.90;;;;;;5111435;27;19920;-58
2023/06/23 08:18:55;;;;;;;;;;;24.30;55.90;;;;;;5095793;28;19924;-58
2023/06/23 08:21:23;;;;;;;;;;;24.20;55.80;;;;;;5111073;27;19923;-56
2023/06/23 08:23:50;;;;;;;;;;;24.30;56.00;;;;;;5110413;27;19920;-57
2023/06/23 08:26:17;;;;;;;;;;;24.20;55.90;;;;;;5096827;28;19920;-57
2023/06/23 08:28:44;;;;;;;;;;;24.30;56.00;;;;;;5097496;28;20425;-58
2023/06/23 08:31:11;;;;;;;;;;;24.20;55.80;;;;;;5094912;28;19920;-59
2023/06/23 08:33:38;;;;;;;;;;;24.30;55.90;;;;;;5097224;28;19920;-59
2023/06/23 08:36:05;;;;;;;;;;;24.30;55.90;;;;;;5095787;28;20467;-57
2023/06/23 08:38:34;;;;;;;;;;;24.30;55.90;;;;;;5095038;28;19931;-58
2023/06/23 08:41:00;;;;;;;;;;;24.30;55.90;;;;;;5092691;28;19920;-58
2023/06/23 08:43:27;;;;;;;;;;;24.30;55.90;;;;;;5093641;28;20116;-58
2023/06/23 08:45:55;;;;;;;;;;;24.30;56.10;;;;;;5093556;28;19927;-58
2023/06/23 08:48:21;;;;;;;;;;;24.20;55.90;;;;;;5092568;28;19969;-57
2023/06/23 08:50:48;;;;;;;;;;;24.30;56.10;;;;;;5096343;28;19942;-58
2023/06/23 08:53:15;;;;;;;;;;;24.30;56.10;;;;;;5094478;28;19924;-59
2023/06/23 08:55:43;;;;;;;;;;;24.30;56.10;;;;;;5098556;28;19920;-58
2023/06/23 08:58:10;;;;;;;;;;;24.30;56.10;;;;;;5096724;28;19920;-59
2023/06/23 09:00:37;;;;;;;;;;;24.30;56.20;;;;;;5093869;28;19955;-58
2023/06/23 09:03:04;;;;;;;;;;;24.30;56.30;;;;;;5095157;28;19920;-58
2023/06/23 09:05:31;;;;;;;;;;;24.30;56.40;;;;;;5095399;28;19920;-57
2023/06/23 09:07:57;;;;;;;;;;;24.30;56.40;;;;;;5092631;28;19923;-60
2023/06/23 09:10:25;;;;;;;;;;;24.30;56.50;;;;;;5098420;28;20002;-58
2023/06/23 09:13:02;;;;;;;;;;;24.30;56.60;;;;;;5096496;28;19926;-56
2023/06/23 09:15:29;;;;;;;;;;;24.30;56.80;;;;;;5089631;28;19973;-55
2023/06/23 09:17:56;;;;;;;;;;;24.30;57.60;;;;;;5095101;28;19932;-56
2023/06/23 09:20:23;;;;;;;;;;;24.30;57.10;;;;;;5096007;28;19921;-56
2023/06/23 09:22:50;;;;;;;;;;;24.30;57.40;;;;;;5092745;28;19920;-56
2023/06/23 09:25:31;;;;;;;;;;;24.20;57.30;;;;;;5091893;28;19928;-53
2023/06/23 09:28:00;;;;;;;;;;;24.20;57.40;;;;;;5092001;28;19936;-57
2023/06/23 09:30:32;;;;;;;;;;;24.20;57.50;;;;;;5092027;28;19943;-56
2023/06/23 09:33:00;;;;;;;;;;;24.10;57.40;;;;;;5097337;28;20357;-55
2023/06/23 09:35:27;;;;;;;;;;;24.10;57.50;;;;;;5091581;28;19939;-56
2023/06/23 09:37:53;;;;;;;;;;;24.00;57.50;;;;;;5090881;28;20010;-56
2023/06/23 09:40:25;;;;;;;;;;;24.00;57.60;;;;;;5101684;28;20315;-57
2023/06/23 09:42:55;;;;;;;;;;;24.00;57.70;;;;;;5099071;28;19920;-53
2023/06/23 09:45:23;;;;;;;;;;;24.00;57.70;;;;;;5092234;28;20319;-58
2023/06/23 09:47:50;;;;;;;;;;;23.90;57.60;;;;;;5095780;28;19985;-57
2023/06/23 09:50:18;;;;;;;;;;;23.90;57.90;;;;;;5088536;28;19954;-57
2023/06/23 09:52:44;;;;;;;;;;;23.90;58.20;;;;;;5095871;28;19965;-57
2023/06/23 09:55:14;;;;;;;;;;;23.90;58.50;;;;;;5094371;28;19932;-57
2023/06/23 09:57:41;;;;;;;;;;;23.80;58.40;;;;;;5094414;28;19968;-57
2023/06/23 10:00:09;;;;;;;;;;;23.80;58.50;;;;;;5095211;28;19919;-54
2023/06/23 10:02:39;;;;;;;;;;;23.80;58.70;;;;;;5095122;28;19924;-56
2023/06/23 10:05:06;;;;;;;;;;;23.80;58.60;;;;;;5096267;28;19950;-56
2023/06/23 10:07:33;;;;;;;;;;;23.80;59.00;;;;;;5095244;28;20002;-57
2023/06/23 10:10:00;;;;;;;;;;;23.70;59.20;;;;;;5091637;28;19985;-56
2023/06/23 10:12:27;;;;;;;;;;;23.70;59.40;;;;;;5097069;28;19932;-56
2023/06/23 10:14:54;;;;;;;;;;;23.70;59.70;;;;;;5097352;28;19920;-56
2023/06/23 10:17:21;;;;;;;;;;;23.70;59.80;;;;;;5089462;28;19924;-56
2023/06/23 10:19:50;;;;;;;;;;;23.70;59.90;;;;;;5100459;28;19981;-54
2023/06/23 10:22:17;;;;;;;;;;;23.80;60.00;;;;;;5091522;28;19954;-58
2023/06/23 10:24:44;;;;;;;;;;;23.70;60.00;;;;;;5096296;28;19981;-58
2023/06/23 10:27:11;;;;;;;;;;;23.70;59.90;;;;;;5094377;28;19932;-56
2023/06/23 10:29:38;;;;;;;;;;;23.80;60.10;;;;;;5090311;28;19981;-54
2023/06/23 10:32:06;;;;;;;;;;;23.70;60.10;;;;;;5091695;28;19939;-57
2023/06/23 10:34:33;;;;;;;;;;;23.70;59.90;;;;;;5096520;28;20289;-57
2023/06/23 10:37:03;;;;;;;;;;;23.70;59.90;;;;;;5095039;28;19939;-57
2023/06/23 10:39:30;;;;;;;;;;;23.70;59.90;;;;;;5097041;28;19951;-58
2023/06/23 10:41:58;;;;;;;;;;;23.70;59.70;;;;;;5088874;28;19927;-58
2023/06/23 10:44:25;;;;;;;;;;;23.70;59.60;;;;;;5092810;28;19932;-58
2023/06/23 10:46:52;;;;;;;;;;;23.70;59.60;;;;;;5092930;28;19959;-57
2023/06/23 10:49:18;;;;;;;;;;;23.70;59.50;;;;;;5098428;28;19981;-58
2023/06/23 10:51:45;;;;;;;;;;;23.70;59.50;;;;;;5102166;28;20242;-54
2023/06/23 10:54:13;;;;;;;;;;;23.60;59.30;;;;;;5097486;28;19920;-56
2023/06/23 10:56:41;;;;;;;;;;;23.70;59.40;;;;;;5114913;27;19920;-56
2023/06/23 10:59:18;;;;;;;;;;;23.60;59.40;;;;;;5098987;28;19924;-56
2023/06/23 11:02:04;;;;;;;;;;;23.60;59.40;;;;;;5099063;28;20303;-58
2023/06/23 11:04:31;;;;;;;;;;;23.60;59.50;;;;;;5096324;28;19939;-57
2023/06/23 11:07:02;;;;;;;;;;;23.60;59.40;;;;;;5102599;28;19924;-56
2023/06/23 11:09:45;;;;;;;;;;;23.60;59.50;;;;;;5096235;28;19924;-57
2023/06/23 11:12:30;;;;;;;;;;;23.60;59.60;;;;;;5115099;27;20600;-58
2023/06/23 11:15:01;;;;;;;;;;;23.60;59.80;;;;;;5099145;28;19932;-57
2023/06/23 11:17:27;;;;;;;;;;;23.60;59.90;;;;;;5094530;28;19931;-56
2023/06/23 11:19:54;;;;;;;;;;;23.60;60.00;;;;;;5092193;28;20420;-57
2023/06/23 11:22:22;;;;;;;;;;;23.60;60.00;;;;;;5099834;28;20377;-56
2023/06/23 11:24:53;;;;;;;;;;;23.60;60.00;;;;;;5098835;28;19928;-57
2023/06/23 11:27:20;;;;;;;;;;;23.60;60.10;;;;;;5096413;28;19973;-56
2023/06/23 11:30:02;;;;;;;;;;;23.60;60.20;;;;;;5107081;28;19923;-57
2023/06/23 11:32:29;;;;;;;;;;;23.60;60.30;;;;;;5089635;28;19920;-58
2023/06/23 11:34:56;;;;;;;;;;;23.60;60.40;;;;;;5092868;28;19927;-58
2023/06/23 11:37:24;;;;;;;;;;;23.70;60.70;;;;;;5090889;28;20316;-57
2023/06/23 11:39:52;;;;;;;;;;;23.60;60.80;;;;;;5092095;28;19920;-55
2023/06/23 11:42:20;;;;;;;;;;;23.70;60.90;;;;;;5100444;28;20018;-57
2023/06/23 11:44:48;;;;;;;;;;;23.60;61.00;;;;;;5093833;28;19927;-55
2023/06/23 11:47:16;;;;;;;;;;;23.60;61.00;;;;;;5099721;28;19920;-59
2023/06/23 11:49:43;;;;;;;;;;;23.60;61.20;;;;;;5101095;28;19924;-59
2023/06/23 11:52:09;;;;;;;;;;;23.60;61.20;;;;;;5092349;28;19920;-58
2023/06/23 11:54:36;;;;;;;;;;;23.60;61.10;;;;;;5094004;28;19931;-59
2023/06/23 11:57:03;;;;;;;;;;;23.60;61.90;;;;;;5093638;28;19927;-55
2023/06/23 11:59:38;;;;;;;;;;;23.60;61.00;;;;;;5100617;28;19920;-58
2023/06/23 12:02:06;;;;;;;;;;;23.70;61.00;;;;;;5101994;28;19936;-57
2023/06/23 12:04:33;;;;;;;;;;;23.70;60.90;;;;;;5101747;28;19927;-56
2023/06/23 12:07:00;;;;;;;;;;;23.60;60.50;;;;;;5103497;28;19946;-57
2023/06/23 12:09:27;;;;;;;;;;;23.60;60.50;;;;;;5096033;28;19938;-58
2023/06/23 12:11:54;;;;;;;;;;;23.60;60.50;;;;;;5100488;28;19927;-59
2023/06/23 12:14:27;;;;;;;;;;;23.60;60.50;;;;;;5094996;28;19923;-56
2023/06/23 12:16:55;;;;;;;;;;;23.60;60.50;;;;;;5077185;28;19944;-56
2023/06/23 12:19:22;;;;;;;;;;;23.60;60.40;;;;;;5071553;28;19921;-57
2023/06/23 12:21:49;;;;;;;;;;;23.60;60.50;;;;;;5064521;28;19970;-59
2023/06/23 12:24:19;;;;;;;;;;;23.60;60.50;;;;;;5071166;28;19978;-59
2023/06/23 12:26:46;;;;;;;;;;;23.60;60.60;;;;;;5067113;28;19921;-59
2023/06/23 12:29:13;;;;;;;;;;;23.60;60.60;;;;;;5074584;28;19928;-58
2023/06/23 12:31:40;;;;;;;;;;;23.60;60.80;;;;;;5056946;28;19921;-59
2023/06/23 12:34:10;;;;;;;;;;;23.60;60.90;;;;;;5059198;28;20070;-57
2023/06/23 12:36:38;;;;;;;;;;;23.50;60.80;;;;;;5058622;28;19924;-58
2023/06/23 12:39:05;;;;;;;;;;;23.50;60.90;;;;;;5074639;28;19943;-56
2023/06/23 12:41:32;;;;;;;;;;;23.50;60.90;;;;;;5073065;28;19920;-56
2023/06/23 12:43:59;;;;;;;;;;;23.50;61.10;;;;;;5062709;28;19924;-54
2023/06/23 12:46:26;;;;;;;;;;;23.50;61.20;;;;;;5074891;28;19924;-58
2023/06/23 12:48:54;;;;;;;;;;;23.50;61.00;;;;;;5059477;28;19981;-56
2023/06/23 12:51:32;;;;;;;;;;;23.50;61.00;;;;;;5074848;28;20028;-57
2023/06/23 12:54:00;;;;;;;;;;;23.50;60.90;;;;;;5058822;28;20297;-58
2023/06/23 12:56:27;;;;;;;;;;;23.50;60.70;;;;;;5056914;28;19926;-57
2023/06/23 12:58:53;;;;;;;;;;;23.50;60.60;;;;;;5059266;28;19924;-56
2023/06/23 13:01:20;;;;;;;;;;;23.50;60.40;;;;;;5052577;28;20003;-56
2023/06/23 13:03:47;;;;;;;;;;;23.50;60.20;;;;;;5054836;28;19967;-56
2023/06/23 13:06:14;;;;;;;;;;;23.50;60.10;;;;;;5079823;28;19939;-57
2023/06/23 13:08:42;;;;;;;;;;;23.50;60.10;;;;;;5056723;28;19921;-58
2023/06/23 13:11:09;;;;;;;;;;;23.50;60.00;;;;;;5057806;28;19924;-52
2023/06/23 13:13:36;;;;;;;;;;;23.50;60.00;;;;;;5053933;28;19936;-57
2023/06/23 13:16:02;;;;;;;;;;;23.50;60.00;;;;;;5081137;28;19920;-57
2023/06/23 13:18:29;;;;;;;;;;;23.50;60.00;;;;;;5097727;28;19924;-58
2023/06/23 13:20:56;;;;;;;;;;;23.50;60.00;;;;;;5096215;28;19965;-58
2023/06/23 13:23:23;;;;;;;;;;;23.50;59.80;;;;;;5095661;28;19932;-58
2023/06/23 13:25:51;;;;;;;;;;;23.60;59.80;;;;;;5090918;28;19924;-59
2023/06/23 13:28:17;;;;;;;;;;;23.60;59.70;;;;;;5101932;28;19923;-57
2023/06/23 13:30:44;;;;;;;;;;;23.60;59.30;;;;;;5104021;28;19923;-57
2023/06/23 13:33:11;;;;;;;;;;;23.60;59.10;;;;;;5091783;28;20385;-58
2023/06/23 13:35:38;;;;;;;;;;;23.60;59.00;;;;;;5096879;28;20732;-55
2023/06/23 13:38:05;;;;;;;;;;;23.60;58.90;;;;;;5092434;28;19920;-57
2023/06/23 13:40:31;;;;;;;;;;;23.60;58.80;;;;;;5097887;28;19924;-57
2023/06/23 13:43:00;;;;;;;;;;;23.60;58.60;;;;;;5091646;28;19924;-57
2023/06/23 13:45:27;;;;;;;;;;;23.60;58.40;;;;;;5097267;28;19997;-58
2023/06/23 13:47:54;;;;;;;;;;;23.60;58.40;;;;;;5095115;28;20837;-57
2023/06/23 13:50:20;;;;;;;;;;;23.60;58.00;;;;;;5092685;28;19929;-58
2023/06/23 13:52:47;;;;;;;;;;;23.60;57.40;;;;;;5092146;28;19920;-57
2023/06/23 13:55:14;;;;;;;;;;;23.60;56.90;;;;;;5094364;28;19965;-58
2023/06/23 13:57:41;;;;;;;;;;;23.60;56.50;;;;;;5090329;28;19920;-58
2023/06/23 14:00:11;;;;;;;;;;;23.60;56.40;;;;;;5096052;28;19920;-56
2023/06/23 14:02:38;;;;;;;;;;;23.60;56.50;;;;;;5095088;28;20312;-56
2023/06/23 14:05:05;;;;;;;;;;;23.60;56.60;;;;;;5091799;28;20011;-56
2023/06/23 14:07:32;;;;;;;;;;;23.60;56.50;;;;;;5092903;28;19920;-58
2023/06/23 14:09:59;;;;;;;;;;;23.60;56.20;;;;;;5097445;28;19924;-58
2023/06/23 14:12:25;;;;;;;;;;;23.60;56.00;;;;;;5094502;28;19932;-58
2023/06/23 14:14:52;;;;;;;;;;;23.60;55.70;;;;;;5085552;28;19940;-57
2023/06/23 14:17:20;;;;;;;;;;;23.60;55.20;;;;;;5053222;28;19924;-57
2023/06/23 14:19:47;;;;;;;;;;;23.60;54.80;;;;;;5060730;28;19964;-57